sensor_id;sensor_type;location;lat;lon;timestamp;temperature;humidity
12771;DHT22;6449;47.666;9.160;2022-12-24T00:02:13;10.50;99.90
12771;DHT22;6449;47.666;9.160;2022-12-24T00:07:08;10.50;99.90
12771;DHT22;6449;47.666;9.160;2022-12-24T00:12:02;10.50;99.90
12771;DHT22;6449;47.666;9.160;2022-12-24T00:16:55;10.50;99.90
12771;DHT22;6449;47.666;9.160;2022-12-24T00:21:49;10.50;99.90
12771;DHT22;6449;47.666;9.160;2022-12-24T00:26:44;10.50;99.90
12771;DHT22;6449;47.666;9.160;2022-12-24T00:31:37;10.60;99.90
12771;DHT22;6449;47.666;9.160;2022-12-24T00:36:31;10.70;99.90
12771;DHT22;6449;47.666;9.160;2022-12-24T00:41:24;10.50;99.90
12771;DHT22;6449;47.666;9.160;2022-12-24T00:46:21;10.40;99.90
12771;DHT22;6449;47.666;9.160;2022-12-24T00:51:16;10.30;99.90
12771;DHT22;6449;47.666;9.160;2022-12-24T00:56:10;10.20;99.90
12771;DHT22;6449;47.666;9.160;2022-12-24T01:01:04;10.20;99.90
12771;DHT22;6449;47.666;9.160;2022-12-24T01:11:07;10.10;99.90
12771;DHT22;6449;47.666;9.160;2022-12-24T01:16:03;10.00;99.90
12771;DHT22;6449;47.666;9.160;2022-12-24T01:26:27;10.00;99.90
12771;DHT22;6449;47.666;9.160;2022-12-24T01:31:28;10.10;99.90
12771;DHT22;6449;47.666;9.160;2022-12-24T01:36:22;10.20;99.90
12771;DHT22;6449;47.666;9.160;2022-12-24T01:41:19;10.20;99.90
12771;DHT22;6449;47.666;9.160;2022-12-24T01:46:33;10.20;99.90
12771;DHT22;6449;47.666;9.160;2022-12-24T01:51:32;10.10;99.90
12771;DHT22;6449;47.666;9.160;2022-12-24T01:56:30;10.00;99.90
12771;DHT22;6449;47.666;9.160;2022-12-24T02:01:24;10.00;99.90
12771;DHT22;6449;47.666;9.160;2022-12-24T02:06:20;9.90;99.90
12771;DHT22;6449;47.666;9.160;2022-12-24T02:11:16;9.90;99.90
12771;DHT22;6449;47.666;9.160;2022-12-24T02:16:20;9.90;99.90
12771;DHT22;6449;47.666;9.160;2022-12-24T02:21:48;9.90;99.90
12771;DHT22;6449;47.666;9.160;2022-12-24T02:27:01;9.90;99.90
12771;DHT22;6449;47.666;9.160;2022-12-24T02:32:10;9.80;99.90
12771;DHT22;6449;47.666;9.160;2022-12-24T02:37:11;9.90;99.90
12771;DHT22;6449;47.666;9.160;2022-12-24T02:42:13;9.90;99.90
12771;DHT22;6449;47.666;9.160;2022-12-24T02:47:13;10.00;99.90
12771;DHT22;6449;47.666;9.160;2022-12-24T02:52:27;10.10;99.90
12771;DHT22;6449;47.666;9.160;2022-12-24T02:57:27;10.10;99.90
12771;DHT22;6449;47.666;9.160;2022-12-24T03:02:48;10.20;99.90
12771;DHT22;6449;47.666;9.160;2022-12-24T03:08:03;10.30;99.90
12771;DHT22;6449;47.666;9.160;2022-12-24T03:13:05;10.30;99.90
12771;DHT22;6449;47.666;9.160;2022-12-24T03:18:07;10.20;99.90
12771;DHT22;6449;47.666;9.160;2022-12-24T03:23:03;10.10;99.90
12771;DHT22;6449;47.666;9.160;2022-12-24T03:27:57;10.10;99.90
12771;DHT22;6449;47.666;9.160;2022-12-24T03:32:55;10.00;99.90
12771;DHT22;6449;47.666;9.160;2022-12-24T03:37:50;9.90;99.90
12771;DHT22;6449;47.666;9.160;2022-12-24T03:42:44;9.90;99.90
12771;DHT22;6449;47.666;9.160;2022-12-24T03:47:37;9.90;99.90
12771;DHT22;6449;47.666;9.160;2022-12-24T03:52:31;9.90;99.90
12771;DHT22;6449;47.666;9.160;2022-12-24T03:57:25;9.90;99.90
12771;DHT22;6449;47.666;9.160;2022-12-24T04:02:19;9.80;99.90
12771;DHT22;6449;47.666;9.160;2022-12-24T04:07:12;9.70;99.90
12771;DHT22;6449;47.666;9.160;2022-12-24T04:12:06;9.70;99.90
12771;DHT22;6449;47.666;9.160;2022-12-24T04:17:01;9.70;99.90
12771;DHT22;6449;47.666;9.160;2022-12-24T04:21:55;9.70;99.90
12771;DHT22;6449;47.666;9.160;2022-12-24T04:26:49;9.80;99.90
12771;DHT22;6449;47.666;9.160;2022-12-24T04:31:42;9.90;99.90
12771;DHT22;6449;47.666;9.160;2022-12-24T04:36:37;9.80;99.90
12771;DHT22;6449;47.666;9.160;2022-12-24T04:41:31;9.80;99.90
12771;DHT22;6449;47.666;9.160;2022-12-24T04:46:26;9.80;99.90
12771;DHT22;6449;47.666;9.160;2022-12-24T04:51:22;9.80;99.90
12771;DHT22;6449;47.666;9.160;2022-12-24T04:56:20;9.80;99.90
12771;DHT22;6449;47.666;9.160;2022-12-24T05:01:17;9.80;99.90
12771;DHT22;6449;47.666;9.160;2022-12-24T05:06:14;9.60;99.90
12771;DHT22;6449;47.666;9.160;2022-12-24T05:11:10;9.60;99.90
12771;DHT22;6449;47.666;9.160;2022-12-24T05:16:06;9.60;99.90
12771;DHT22;6449;47.666;9.160;2022-12-24T05:21:01;9.60;99.90
12771;DHT22;6449;47.666;9.160;2022-12-24T05:25:54;9.60;99.90
12771;DHT22;6449;47.666;9.160;2022-12-24T05:31:06;9.60;99.90
12771;DHT22;6449;47.666;9.160;2022-12-24T05:36:00;9.40;99.90
12771;DHT22;6449;47.666;9.160;2022-12-24T05:40:53;9.40;99.90
12771;DHT22;6449;47.666;9.160;2022-12-24T05:45:47;9.30;99.90
12771;DHT22;6449;47.666;9.160;2022-12-24T05:50:42;9.40;99.90
12771;DHT22;6449;47.666;9.160;2022-12-24T05:55:35;9.40;99.90
12771;DHT22;6449;47.666;9.160;2022-12-24T06:00:29;9.40;99.90
12771;DHT22;6449;47.666;9.160;2022-12-24T06:05:22;9.40;99.90
12771;DHT22;6449;47.666;9.160;2022-12-24T06:10:17;9.40;99.90
12771;DHT22;6449;47.666;9.160;2022-12-24T06:15:10;9.40;99.90
12771;DHT22;6449;47.666;9.160;2022-12-24T06:20:11;9.30;99.90
12771;DHT22;6449;47.666;9.160;2022-12-24T06:25:05;9.30;99.90
12771;DHT22;6449;47.666;9.160;2022-12-24T06:30:00;9.30;99.90
12771;DHT22;6449;47.666;9.160;2022-12-24T06:34:53;9.20;99.90
12771;DHT22;6449;47.666;9.160;2022-12-24T06:39:47;9.20;99.90
12771;DHT22;6449;47.666;9.160;2022-12-24T06:44:40;9.30;99.90
12771;DHT22;6449;47.666;9.160;2022-12-24T06:49:35;9.20;99.90
12771;DHT22;6449;47.666;9.160;2022-12-24T06:54:28;9.20;99.90
12771;DHT22;6449;47.666;9.160;2022-12-24T06:59:22;9.20;99.90
12771;DHT22;6449;47.666;9.160;2022-12-24T07:04:15;9.10;99.90
12771;DHT22;6449;47.666;9.160;2022-12-24T07:09:13;9.10;99.90
12771;DHT22;6449;47.666;9.160;2022-12-24T07:14:06;9.00;99.90
12771;DHT22;6449;47.666;9.160;2022-12-24T07:19:00;9.00;99.90
12771;DHT22;6449;47.666;9.160;2022-12-24T07:23:55;9.00;99.90
12771;DHT22;6449;47.666;9.160;2022-12-24T07:28:50;9.00;99.90
12771;DHT22;6449;47.666;9.160;2022-12-24T07:33:43;9.00;99.90
12771;DHT22;6449;47.666;9.160;2022-12-24T07:38:37;9.00;99.90
12771;DHT22;6449;47.666;9.160;2022-12-24T07:43:32;9.00;99.90
12771;DHT22;6449;47.666;9.160;2022-12-24T07:48:28;9.00;99.90
12771;DHT22;6449;47.666;9.160;2022-12-24T07:53:25;8.90;99.90
12771;DHT22;6449;47.666;9.160;2022-12-24T07:58:20;8.90;99.90
12771;DHT22;6449;47.666;9.160;2022-12-24T08:03:16;8.90;99.90
12771;DHT22;6449;47.666;9.160;2022-12-24T08:08:13;8.90;99.90
12771;DHT22;6449;47.666;9.160;2022-12-24T08:13:06;8.80;99.90
12771;DHT22;6449;47.666;9.160;2022-12-24T08:18:00;8.80;99.90
12771;DHT22;6449;47.666;9.160;2022-12-24T08:22:54;8.80;99.90
12771;DHT22;6449;47.666;9.160;2022-12-24T08:27:49;8.70;99.90
12771;DHT22;6449;47.666;9.160;2022-12-24T08:32:42;8.80;99.90
12771;DHT22;6449;47.666;9.160;2022-12-24T08:37:36;8.70;99.90
12771;DHT22;6449;47.666;9.160;2022-12-24T08:42:29;8.70;99.90
12771;DHT22;6449;47.666;9.160;2022-12-24T08:47:24;8.70;99.90
12771;DHT22;6449;47.666;9.160;2022-12-24T08:52:17;8.60;99.90
12771;DHT22;6449;47.666;9.160;2022-12-24T08:57:11;8.60;99.90
12771;DHT22;6449;47.666;9.160;2022-12-24T09:02:05;8.60;99.90
12771;DHT22;6449;47.666;9.160;2022-12-24T09:07:00;8.60;99.90
12771;DHT22;6449;47.666;9.160;2022-12-24T09:11:53;8.60;99.90
12771;DHT22;6449;47.666;9.160;2022-12-24T09:16:47;8.60;99.90
12771;DHT22;6449;47.666;9.160;2022-12-24T09:21:40;8.60;99.90
12771;DHT22;6449;47.666;9.160;2022-12-24T09:26:35;8.60;99.90
12771;DHT22;6449;47.666;9.160;2022-12-24T09:31:29;8.60;99.90
12771;DHT22;6449;47.666;9.160;2022-12-24T09:36:22;8.50;99.90
12771;DHT22;6449;47.666;9.160;2022-12-24T09:41:27;8.50;99.90
12771;DHT22;6449;47.666;9.160;2022-12-24T09:46:48;8.50;99.90
12771;DHT22;6449;47.666;9.160;2022-12-24T09:51:48;8.50;99.90
12771;DHT22;6449;47.666;9.160;2022-12-24T09:56:45;8.50;99.90
12771;DHT22;6449;47.666;9.160;2022-12-24T10:01:40;8.50;99.90
12771;DHT22;6449;47.666;9.160;2022-12-24T10:06:42;8.60;99.90
12771;DHT22;6449;47.666;9.160;2022-12-24T10:11:47;8.60;99.90
12771;DHT22;6449;47.666;9.160;2022-12-24T10:16:50;8.70;99.90
12771;DHT22;6449;47.666;9.160;2022-12-24T10:22:02;8.70;99.90
12771;DHT22;6449;47.666;9.160;2022-12-24T10:27:09;8.70;99.90
12771;DHT22;6449;47.666;9.160;2022-12-24T10:32:15;8.60;99.90
12771;DHT22;6449;47.666;9.160;2022-12-24T10:37:16;8.70;99.90
12771;DHT22;6449;47.666;9.160;2022-12-24T10:42:16;8.80;99.90
12771;DHT22;6449;47.666;9.160;2022-12-24T10:47:12;8.70;99.90
12771;DHT22;6449;47.666;9.160;2022-12-24T10:52:10;8.80;99.90
12771;DHT22;6449;47.666;9.160;2022-12-24T10:57:24;8.80;99.90
12771;DHT22;6449;47.666;9.160;2022-12-24T11:02:25;8.90;99.90
12771;DHT22;6449;47.666;9.160;2022-12-24T11:07:22;8.80;99.90
12771;DHT22;6449;47.666;9.160;2022-12-24T11:12:20;8.80;99.90
12771;DHT22;6449;47.666;9.160;2022-12-24T11:17:19;8.80;99.90
12771;DHT22;6449;47.666;9.160;2022-12-24T11:22:18;8.80;99.90
12771;DHT22;6449;47.666;9.160;2022-12-24T11:27:40;8.70;99.90
12771;DHT22;6449;47.666;9.160;2022-12-24T11:32:38;8.70;99.90
12771;DHT22;6449;47.666;9.160;2022-12-24T11:37:31;8.70;99.90
12771;DHT22;6449;47.666;9.160;2022-12-24T11:42:29;8.70;99.90
12771;DHT22;6449;47.666;9.160;2022-12-24T11:47:34;8.70;99.90
12771;DHT22;6449;47.666;9.160;2022-12-24T11:52:29;8.80;99.90
12771;DHT22;6449;47.666;9.160;2022-12-24T11:57:27;8.80;99.90
12771;DHT22;6449;47.666;9.160;2022-12-24T12:02:33;8.80;99.90
12771;DHT22;6449;47.666;9.160;2022-12-24T12:07:32;8.80;99.90
12771;DHT22;6449;47.666;9.160;2022-12-24T12:12:29;8.80;99.90
12771;DHT22;6449;47.666;9.160;2022-12-24T12:17:31;8.90;99.90
12771;DHT22;6449;47.666;9.160;2022-12-24T12:22:34;8.80;99.90
12771;DHT22;6449;47.666;9.160;2022-12-24T12:27:38;8.90;99.90
12771;DHT22;6449;47.666;9.160;2022-12-24T12:32:42;8.90;99.90
12771;DHT22;6449;47.666;9.160;2022-12-24T12:37:43;9.00;99.90
12771;DHT22;6449;47.666;9.160;2022-12-24T12:42:43;9.00;99.90
12771;DHT22;6449;47.666;9.160;2022-12-24T12:48:04;9.00;99.90
12771;DHT22;6449;47.666;9.160;2022-12-24T12:53:26;9.10;99.90
12771;DHT22;6449;47.666;9.160;2022-12-24T12:58:34;9.20;99.90
12771;DHT22;6449;47.666;9.160;2022-12-24T13:36:12;9.00;99.90
12771;DHT22;6449;47.666;9.160;2022-12-24T13:46:56;8.90;99.90
12771;DHT22;6449;47.666;9.160;2022-12-24T13:52:16;8.80;99.90
12771;DHT22;6449;47.666;9.160;2022-12-24T13:57:28;8.80;99.90
12771;DHT22;6449;47.666;9.160;2022-12-24T14:02:25;8.80;99.90
12771;DHT22;6449;47.666;9.160;2022-12-24T14:07:24;8.90;99.90
12771;DHT22;6449;47.666;9.160;2022-12-24T14:17:47;8.90;99.90
12771;DHT22;6449;47.666;9.160;2022-12-24T14:22:44;8.90;99.90
12771;DHT22;6449;47.666;9.160;2022-12-24T14:27:42;8.90;99.90
12771;DHT22;6449;47.666;9.160;2022-12-24T14:32:38;8.90;99.90
12771;DHT22;6449;47.666;9.160;2022-12-24T14:37:33;8.90;99.90
12771;DHT22;6449;47.666;9.160;2022-12-24T14:42:36;8.80;99.90
12771;DHT22;6449;47.666;9.160;2022-12-24T14:47:38;8.80;99.90
12771;DHT22;6449;47.666;9.160;2022-12-24T14:52:42;8.70;99.90
12771;DHT22;6449;47.666;9.160;2022-12-24T14:58:26;8.70;99.90
12771;DHT22;6449;47.666;9.160;2022-12-24T15:03:23;8.60;99.90
12771;DHT22;6449;47.666;9.160;2022-12-24T15:08:26;8.60;99.90
12771;DHT22;6449;47.666;9.160;2022-12-24T15:13:29;8.50;99.90
12771;DHT22;6449;47.666;9.160;2022-12-24T15:18:30;8.50;99.90
12771;DHT22;6449;47.666;9.160;2022-12-24T15:23:29;8.40;99.90
12771;DHT22;6449;47.666;9.160;2022-12-24T15:28:25;8.40;99.90
12771;DHT22;6449;47.666;9.160;2022-12-24T15:33:19;8.30;99.90
12771;DHT22;6449;47.666;9.160;2022-12-24T15:38:28;8.30;99.90
12771;DHT22;6449;47.666;9.160;2022-12-24T15:43:26;8.30;99.90
12771;DHT22;6449;47.666;9.160;2022-12-24T15:48:22;8.30;99.90
12771;DHT22;6449;47.666;9.160;2022-12-24T15:53:23;8.20;99.90
12771;DHT22;6449;47.666;9.160;2022-12-24T15:58:24;8.20;99.90
12771;DHT22;6449;47.666;9.160;2022-12-24T16:03:20;8.20;99.90
